Airfield :
LOGIN :

Register | Disclaimer

   EN    FR    IT 

 










Legend :    VFR   Marginal VFR   IFR   Intensive IFR   Very Intensive IFR
Visi :
Ceiling :
>= 8 km
>= 3000ft
5 to 8 km
1000 to 3000 ft
1500m to 5 km
500 to 1000 ft
800 to 1500m
200 to 500 ft
< 800m
< 200 ft
Symbols :   Thunderstorms  Fog  Heavy snow  Heavy precipitations  Wind > 20 kt
SIGMETs :     Misc.  Thunderstorms  Icing  Turbulence  Mountain Waves  Volcanic Ashes






- Airport Elevation : 20 ft


EBFN - Koksijde

CURRENT METAR :
  • 280733Z AUTO 35021KT 3700 RA OVC017/// 06/04 Q0999 GRN

EXPIRED METARs :
  • 280725Z AUTO 35020KT 9000 RA OVC015/// 06/03 Q0999 WHT
  • 280655Z AUTO 35015KT 3000 +RASN FEW010/// OVC018/// 05/03 Q0999 YLO
  • 280637Z AUTO 35014G25KT 1500 +RASN BKN020/// BKN049/// 05/03 Q0999 AMB
  • 280555Z AUTO 01013KT 9999 -RA OVC021/// 06/03 Q0998 WHT
  • 280525Z AUTO 01017KT 9999 -RASN OVC023/// 05/03 Q0998 WHT
  • 280517Z AUTO 35017G28KT 1500 RA FEW024/// BKN030/// BKN077/// 05/03 Q0998 AMB
  • 280511Z AUTO 35015KT 4800 RA FEW022/// BKN031/// BKN077/// 06/04 Q0998 GRN
  • 280455Z AUTO 36020KT 9999 -RA BKN023/// BKN053/// BKN077/// 06/04 Q0997 WHT
  • 280445Z AUTO 01016G26KT 9999 -RA BKN023/// OVC052/// 06/03 Q0997 WHT

TAF TAF EBFN
Valid from the 28 at 07:00 until the 28 at 16:00 UTC


280541Z 2807/2816 34018G30KT 5000 -SHRAGS FEW015 BKN020TCU
TEMPO 2807/2812 34015G25KT 8000 NSW FEW015 BKN025
TEMPO 2812/2816 01020G32KT 3000 SHGSRA FEW008 BKN012CB BKN020
PROB30
TEMPO 2808/2816 01022G35KT 2000 -TSGS FEW005 BKN010CB BY EBWM



MET'MAP, your aeronautical weather chart ! - Copyright ORBIFLY December 2007 - Disclaimer

ORBIFLY MET'MAP TEAM :

Programming & Development : Alexandra Zaïnal
Concept & original design : Baudouin d'Aumeries
Assistance for programming : Marc-Olivier Méhu
Technical & hardware support : Manuel Goepfert

Contact : metmap@orbifly.com




SOURCES & CREDITS :

   NOAA